Terminal Aerodrome Forecast
Issued by NWS

Current Version | Previous Version | Text Only | Print | Product List | Glossary Off
Versions: 1 2 3 4 5 6 7 8 9 10 11 12 13

000
FTUS41 KRNK 220537
TAFLWB
TAF
KLWB 220537Z 2206/2306 00000KT P6SM SKC
     FM220800 VRB03KT P6SM SCT050 BKN120
     FM221300 00000KT 4SM -SHRA SCT035 OVC090
     FM221600 24007KT 6SM -SHRA BKN030 BKN060
     FM221800 27010G20KT 3SM SHRA OVC025
     FM221900 29012G25KT P6SM OVC035
     FM230000 30008KT P6SM SCT120=

USA.gov is the U.S. government's official web portal to all federal, state and local government web resources and services.